Time;durP1;ratioP1;P1;durP2;ratioP2;P2;SDS_P1;SDS_P2;PMS_P1;PMS_P2;Temp;Humidity;BMP_temperature;BMP_pressure;BME280_temperature;BME280_humidity;BME280_pressure;Samples;Min_cycle;Max_cycle;Signal;HPM_P1;HPM_P2
2023/10/17 14:56:04;;;;;;;5.73;5.33;;;;;;;;;;5146002;27;20569;-65
2023/10/17 14:58:31;;;;;;;5.00;4.60;;;;;;;;;;5135930;27;20489;-65
2023/10/17 15:00:57;;;;;;;5.27;4.80;;;;;;;;;;5127300;27;20502;-66
2023/10/17 15:03:25;;;;;;;5.77;4.97;;;;;;;;;;5141285;27;20898;-65
2023/10/17 15:05:52;;;;;;;5.37;4.87;;;;;;;;;;5136926;27;20481;-65
2023/10/17 15:08:19;;;;;;;5.17;4.73;;;;;;;;;;5138998;27;20479;-65
2023/10/17 15:10:45;;;;;;;6.27;5.67;;;;;;;;;;5140774;27;20478;-65
2023/10/17 15:13:13;;;;;;;4.73;4.33;;;;;;;;;;5138371;27;20465;-65
2023/10/17 15:15:41;;;;;;;6.17;5.60;;;;;;;;;;5138410;27;20475;-65
2023/10/17 15:18:08;;;;;;;10.37;9.20;;;;;;;;;;5141649;27;20453;-65
2023/10/17 15:20:35;;;;;;;6.53;5.43;;;;;;;;;;5135949;27;20484;-65
2023/10/17 15:23:01;;;;;;;5.83;5.03;;;;;;;;;;5131085;27;20536;-65
2023/10/17 15:25:29;;;;;;;7.13;5.13;;;;;;;;;;5139751;27;20517;-65
2023/10/17 15:27:55;;;;;;;5.40;4.90;;;;;;;;;;5140135;27;20457;-65
2023/10/17 15:30:23;;;;;;;5.57;5.10;;;;;;;;;;5135442;27;20488;-65
2023/10/17 15:32:50;;;;;;;5.83;5.20;;;;;;;;;;5140454;27;20455;-65
2023/10/17 15:35:17;;;;;;;7.70;5.40;;;;;;;;;;5132120;27;20873;-65
2023/10/17 15:37:46;;;;;;;5.20;4.50;;;;;;;;;;5136269;27;20485;-65
2023/10/17 15:40:16;;;;;;;13.20;12.07;;;;;;;;;;5135747;27;20480;-65
2023/10/17 15:42:43;;;;;;;7.07;6.33;;;;;;;;;;5139126;27;20462;-65
2023/10/17 15:45:11;;;;;;;7.43;6.73;;;;;;;;;;5134117;27;20571;-65
2023/10/17 15:47:39;;;;;;;8.40;5.50;;;;;;;;;;5143043;27;20445;-65
2023/10/17 15:50:06;;;;;;;6.33;5.67;;;;;;;;;;5136501;27;20481;-65
2023/10/17 15:52:33;;;;;;;6.07;4.83;;;;;;;;;;5138180;27;20441;-65
2023/10/17 15:55:00;;;;;;;6.53;5.93;;;;;;;;;;5139077;27;20562;-65
2023/10/17 15:57:27;;;;;;;6.50;5.47;;;;;;;;;;5133962;27;20454;-65
2023/10/17 15:59:54;;;;;;;6.53;5.37;;;;;;;;;;5136545;27;20464;-66
2023/10/17 16:02:21;;;;;;;7.40;5.13;;;;;;;;;;5133555;27;20891;-61
2023/10/17 16:04:48;;;;;;;8.00;6.10;;;;;;;;;;5131890;27;20531;-61
2023/10/17 16:07:15;;;;;;;7.10;5.70;;;;;;;;;;5119211;27;20452;-59
2023/10/17 16:09:45;;;;;;;9.77;6.00;;;;;;;;;;5128455;27;20481;-59
2023/10/17 16:12:14;;;;;;;7.40;6.20;;;;;;;;;;5122293;27;20454;-59
2023/10/17 16:14:40;;;;;;;8.20;5.47;;;;;;;;;;5125964;27;20447;-59
2023/10/17 16:17:07;;;;;;;7.80;6.33;;;;;;;;;;5119528;27;20450;-60
2023/10/17 16:19:33;;;;;;;5.13;4.63;;;;;;;;;;5124499;27;20453;-60
2023/10/17 16:22:01;;;;;;;8.00;5.77;;;;;;;;;;5112910;27;20512;-59
2023/10/17 16:24:28;;;;;;;8.07;5.83;;;;;;;;;;5113360;27;20486;-60
2023/10/17 16:26:55;;;;;;;8.60;6.20;;;;;;;;;;5116726;28;20450;-60
2023/10/17 16:29:22;;;;;;;10.33;7.93;;;;;;;;;;5105442;28;20532;-59
2023/10/17 16:31:51;;;;;;;6.93;5.50;;;;;;;;;;5105975;28;20486;-60
2023/10/17 16:34:17;;;;;;;8.23;6.60;;;;;;;;;;5097369;28;20462;-60
2023/10/17 16:36:44;;;;;;;7.10;5.63;;;;;;;;;;5102970;28;20485;-60
2023/10/17 16:39:12;;;;;;;7.40;6.37;;;;;;;;;;5104844;28;20458;-59
2023/10/17 16:41:38;;;;;;;7.80;5.73;;;;;;;;;;5103746;28;20486;-59
2023/10/17 16:44:05;;;;;;;7.67;6.20;;;;;;;;;;5099420;28;20491;-59
2023/10/17 16:46:32;;;;;;;8.20;5.90;;;;;;;;;;5095356;28;20459;-60
2023/10/17 16:49:00;;;;;;;8.53;6.70;;;;;;;;;;5105594;28;20515;-59
2023/10/17 16:51:28;;;;;;;7.90;5.50;;;;;;;;;;5102676;28;20458;-59
2023/10/17 16:53:54;;;;;;;8.80;5.83;;;;;;;;;;5106291;28;20494;-60
2023/10/17 16:56:22;;;;;;;7.87;5.93;;;;;;;;;;5103160;28;20457;-59
2023/10/17 16:58:48;;;;;;;9.80;6.17;;;;;;;;;;5106115;28;20668;-60
2023/10/17 17:01:16;;;;;;;11.40;6.87;;;;;;;;;;5103670;28;20477;-60
2023/10/17 17:03:44;;;;;;;11.60;7.23;;;;;;;;;;5113991;28;20451;-60
2023/10/17 17:06:11;;;;;;;13.20;7.67;;;;;;;;;;5106760;28;20482;-60
2023/10/17 17:08:38;;;;;;;12.50;7.83;;;;;;;;;;5101060;28;20470;-60
2023/10/17 17:11:05;;;;;;;12.83;8.93;;;;;;;;;;5100420;28;20451;-60
2023/10/17 17:13:33;;;;;;;17.20;9.40;;;;;;;;;;5100240;28;20497;-60
2023/10/17 17:16:00;;;;;;;12.30;8.70;;;;;;;;;;5108446;28;20474;-60
2023/10/17 17:18:26;;;;;;;12.17;9.60;;;;;;;;;;5102403;27;20486;-59
2023/10/17 17:20:53;;;;;;;18.37;9.37;;;;;;;;;;5110088;28;20434;-59
2023/10/17 17:23:20;;;;;;;12.83;9.33;;;;;;;;;;5099986;28;20451;-60
2023/10/17 17:25:46;;;;;;;12.27;9.23;;;;;;;;;;5099197;28;20475;-59
2023/10/17 17:28:12;;;;;;;15.20;10.27;;;;;;;;;;5103312;28;20451;-59
2023/10/17 17:30:41;;;;;;;14.87;10.83;;;;;;;;;;5100087;28;20473;-60
2023/10/17 17:33:08;;;;;;;13.50;10.40;;;;;;;;;;5096637;28;20454;-60
2023/10/17 17:35:35;;;;;;;12.80;9.17;;;;;;;;;;5109609;28;20458;-59
2023/10/17 17:38:01;;;;;;;8.80;7.90;;;;;;;;;;5102450;28;20446;-66
2023/10/17 17:40:28;;;;;;;13.77;8.67;;;;;;;;;;5100685;28;20494;-66
2023/10/17 17:42:55;;;;;;;15.60;10.40;;;;;;;;;;5109981;28;20454;-67
2023/10/17 17:45:22;;;;;;;20.30;11.77;;;;;;;;;;5105182;28;20498;-67
2023/10/17 17:47:50;;;;;;;29.93;13.43;;;;;;;;;;5102862;28;20494;-66
2023/10/17 17:50:17;;;;;;;33.00;18.87;;;;;;;;;;5105662;28;20448;-66
2023/10/17 17:52:43;;;;;;;16.60;11.63;;;;;;;;;;5108514;28;20454;-65
2023/10/17 17:55:10;;;;;;;26.70;12.83;;;;;;;;;;5099413;28;20506;-65
2023/10/17 17:57:38;;;;;;;25.03;13.20;;;;;;;;;;5106997;28;20451;-66
2023/10/17 18:00:05;;;;;;;18.90;11.47;;;;;;;;;;5105898;28;20490;-66
2023/10/17 18:02:32;;;;;;;23.80;15.53;;;;;;;;;;5099034;28;20435;-66
2023/10/17 18:05:00;;;;;;;17.73;12.87;;;;;;;;;;5096798;28;20483;-66
2023/10/17 18:07:26;;;;;;;13.40;9.83;;;;;;;;;;5099312;28;21019;-66
2023/10/17 18:09:53;;;;;;;13.77;10.50;;;;;;;;;;5093934;28;20880;-67
2023/10/17 18:12:19;;;;;;;11.60;8.03;;;;;;;;;;5103103;28;20503;-68
2023/10/17 18:14:45;;;;;;;12.70;9.53;;;;;;;;;;5107807;28;20451;-68
2023/10/17 18:17:13;;;;;;;28.13;17.40;;;;;;;;;;5109721;28;20473;-68
2023/10/17 18:19:39;;;;;;;24.93;19.27;;;;;;;;;;5100331;28;20465;-68
2023/10/17 18:22:07;;;;;;;23.67;16.30;;;;;;;;;;5095014;28;20443;-68
2023/10/17 18:24:35;;;;;;;14.73;10.43;;;;;;;;;;5103100;28;20494;-67
2023/10/17 18:27:02;;;;;;;13.80;9.30;;;;;;;;;;5097837;28;20546;-68
2023/10/17 18:29:31;;;;;;;15.60;10.07;;;;;;;;;;5103597;28;20463;-67
2023/10/17 18:31:58;;;;;;;11.87;9.20;;;;;;;;;;5098810;28;20941;-67
2023/10/17 18:34:24;;;;;;;13.17;9.10;;;;;;;;;;5103174;28;20450;-68
2023/10/17 18:36:51;;;;;;;16.83;10.10;;;;;;;;;;5107798;28;20455;-67
2023/10/17 18:39:19;;;;;;;19.40;11.47;;;;;;;;;;5100314;28;20459;-67
2023/10/17 18:41:47;;;;;;;17.40;12.30;;;;;;;;;;5108550;28;20458;-68
2023/10/17 18:44:14;;;;;;;13.63;10.03;;;;;;;;;;5104829;28;20461;-67
2023/10/17 18:46:42;;;;;;;15.30;11.30;;;;;;;;;;5109655;28;20581;-69
2023/10/17 18:49:10;;;;;;;15.17;11.33;;;;;;;;;;5105122;28;20479;-68
2023/10/17 18:51:37;;;;;;;20.40;12.30;;;;;;;;;;5102314;28;20462;-69
2023/10/17 18:54:04;;;;;;;26.90;20.70;;;;;;;;;;5096353;28;20485;-68
2023/10/17 18:56:33;;;;;;;17.90;13.27;;;;;;;;;;5104388;28;20681;-68
2023/10/17 18:59:00;;;;;;;19.40;13.50;;;;;;;;;;5107658;28;20500;-67
2023/10/17 19:01:26;;;;;;;16.20;10.93;;;;;;;;;;5104255;28;20481;-67
2023/10/17 19:03:53;;;;;;;19.48;13.70;;;;;;;;;;5098951;28;20429;-68
2023/10/17 19:06:20;;;;;;;16.93;11.33;;;;;;;;;;5105836;28;20213;-67
2023/10/17 19:08:46;;;;;;;21.93;15.43;;;;;;;;;;5098514;28;20451;-66
2023/10/17 19:11:13;;;;;;;20.47;14.13;;;;;;;;;;5098830;28;20490;-66
2023/10/17 19:13:41;;;;;;;20.80;14.80;;;;;;;;;;5094308;28;20512;-67
2023/10/17 19:16:09;;;;;;;17.27;13.77;;;;;;;;;;5098327;28;20450;-67
2023/10/17 19:18:36;;;;;;;16.77;12.10;;;;;;;;;;5100238;28;20485;-67
2023/10/17 19:21:03;;;;;;;21.90;14.80;;;;;;;;;;5108151;28;20496;-68
2023/10/17 19:23:32;;;;;;;21.30;14.57;;;;;;;;;;5105733;28;20434;-69
2023/10/17 19:25:59;;;;;;;17.67;13.80;;;;;;;;;;5105163;28;20486;-68
2023/10/17 19:28:25;;;;;;;19.80;12.93;;;;;;;;;;5105360;28;20499;-69
2023/10/17 19:30:53;;;;;;;16.30;12.77;;;;;;;;;;5098951;28;20484;-68
2023/10/17 19:33:20;;;;;;;17.07;12.37;;;;;;;;;;5104536;28;20444;-65
2023/10/17 19:35:46;;;;;;;21.50;15.23;;;;;;;;;;5109185;28;20520;-66
2023/10/17 19:43:48;;;;;;;26.27;14.70;;;;;;;;;;5129566;27;20556;-67
2023/10/17 19:46:15;;;;;;;24.47;15.03;;;;;;;;;;5121448;28;20459;-67
2023/10/17 19:50:43;;;;;;;32.53;15.27;;;;;;;;;;5113905;27;20784;-67
2023/10/17 19:53:09;;;;;;;25.40;14.67;;;;;;;;;;5091861;28;20478;-67
2023/10/17 19:55:36;;;;;;;24.67;14.47;;;;;;;;;;5096918;28;20462;-67
2023/10/17 19:58:02;;;;;;;20.97;13.73;;;;;;;;;;5094976;28;20477;-67
2023/10/17 20:00:31;;;;;;;28.40;16.60;;;;;;;;;;5092089;28;20499;-67
2023/10/17 20:02:57;;;;;;;25.60;15.60;;;;;;;;;;5098231;28;20450;-66
2023/10/17 20:05:24;;;;;;;24.90;16.23;;;;;;;;;;5090467;28;20459;-67
2023/10/17 20:07:52;;;;;;;24.53;15.97;;;;;;;;;;5090948;28;20515;-67
2023/10/17 20:10:20;;;;;;;26.57;16.33;;;;;;;;;;5098467;28;20531;-67
2023/10/17 20:12:50;;;;;;;27.33;15.67;;;;;;;;;;5091892;28;20458;-66
2023/10/17 20:15:18;;;;;;;28.83;16.83;;;;;;;;;;5081618;28;20528;-66
2023/10/17 20:17:48;;;;;;;28.73;17.33;;;;;;;;;;5097573;28;20446;-67
2023/10/17 20:20:19;;;;;;;22.40;16.73;;;;;;;;;;5094717;28;20480;-67
2023/10/17 20:22:45;;;;;;;27.07;18.07;;;;;;;;;;5096230;28;20469;-67
2023/10/17 20:25:14;;;;;;;20.60;15.70;;;;;;;;;;5089497;28;20467;-67
2023/10/17 20:27:44;;;;;;;31.93;16.33;;;;;;;;;;5080173;28;20462;-68
2023/10/17 20:30:12;;;;;;;25.60;16.13;;;;;;;;;;5082902;28;20539;-66
2023/10/17 20:32:38;;;;;;;25.13;16.43;;;;;;;;;;5084978;28;20453;-67
2023/10/17 20:35:09;;;;;;;25.50;15.70;;;;;;;;;;5077892;28;20494;-68
2023/10/17 20:37:36;;;;;;;22.50;14.40;;;;;;;;;;5070353;28;20872;-66
2023/10/17 20:40:11;;;;;;;22.67;14.10;;;;;;;;;;5080163;28;20471;-68
2023/10/17 20:42:39;;;;;;;30.90;15.87;;;;;;;;;;5079024;28;20512;-66
2023/10/17 20:45:13;;;;;;;29.50;17.00;;;;;;;;;;5074637;28;20547;-68
2023/10/17 20:47:40;;;;;;;31.37;16.20;;;;;;;;;;5075567;28;20451;-66
2023/10/17 20:50:08;;;;;;;27.00;15.60;;;;;;;;;;5076543;28;20487;-66
2023/10/17 20:52:37;;;;;;;28.90;16.47;;;;;;;;;;5079190;28;20512;-64
2023/10/17 20:55:05;;;;;;;24.33;16.27;;;;;;;;;;5075285;28;20459;-64
2023/10/17 20:57:31;;;;;;;30.03;16.80;;;;;;;;;;5077132;28;20474;-65
2023/10/17 21:00:00;;;;;;;27.73;16.40;;;;;;;;;;5075485;28;20549;-64
2023/10/17 21:02:29;;;;;;;30.90;18.43;;;;;;;;;;5065612;28;21009;-64
2023/10/17 21:04:55;;;;;;;32.80;18.33;;;;;;;;;;5061415;28;20465;-65
2023/10/17 21:07:22;;;;;;;25.70;16.60;;;;;;;;;;5070543;28;20453;-65
2023/10/17 21:09:48;;;;;;;28.63;16.07;;;;;;;;;;5061999;28;20456;-65
2023/10/17 21:12:15;;;;;;;27.03;17.03;;;;;;;;;;5069403;28;21075;-64
2023/10/17 21:14:42;;;;;;;34.83;18.93;;;;;;;;;;5062145;28;20498;-65
2023/10/17 21:17:09;;;;;;;35.40;17.53;;;;;;;;;;5062525;28;21113;-65
2023/10/17 21:19:36;;;;;;;25.13;15.60;;;;;;;;;;5067083;28;20520;-64
2023/10/17 21:24:25;;;;;;;33.57;18.60;;;;;;;;;;5148636;27;20559;-67
2023/10/17 21:29:28;;;;;;;32.53;18.13;;;;;;;;;;5151392;27;20568;-66
2023/10/17 21:31:55;;;;;;;28.57;17.17;;;;;;;;;;5143306;27;20857;-66
2023/10/17 21:34:22;;;;;;;33.33;17.87;;;;;;;;;;5139161;27;20479;-65
2023/10/17 21:36:50;;;;;;;34.33;18.10;;;;;;;;;;5138719;27;20456;-67
2023/10/17 21:39:17;;;;;;;34.10;17.20;;;;;;;;;;5137871;27;20446;-67
2023/10/17 21:41:43;;;;;;;29.50;17.60;;;;;;;;;;5124906;27;20506;-66
2023/10/17 21:46:00;;;;;;;33.63;18.50;;;;;;;;;;5150084;27;20566;-66
2023/10/17 21:48:27;;;;;;;37.00;18.90;;;;;;;;;;5127140;27;20559;-66
2023/10/17 21:50:58;;;;;;;41.23;21.17;;;;;;;;;;5139136;27;20468;-66
2023/10/17 21:53:26;;;;;;;34.70;20.37;;;;;;;;;;5132798;27;20901;-65
2023/10/17 21:55:59;;;;;;;31.00;18.67;;;;;;;;;;5135385;27;20540;-67
2023/10/17 21:58:26;;;;;;;29.90;17.37;;;;;;;;;;5130273;27;20454;-66
2023/10/17 22:00:56;;;;;;;33.60;18.20;;;;;;;;;;5138368;27;20455;-65
2023/10/17 22:03:24;;;;;;;28.37;18.03;;;;;;;;;;5136824;27;20450;-65
2023/10/17 22:05:52;;;;;;;31.43;18.07;;;;;;;;;;5140947;27;20938;-65
2023/10/17 22:08:18;;;;;;;31.87;18.10;;;;;;;;;;5129759;27;20490;-64
2023/10/17 22:10:45;;;;;;;30.43;17.00;;;;;;;;;;5141319;27;20449;-65
2023/10/17 22:13:14;;;;;;;27.23;15.63;;;;;;;;;;5137999;27;20484;-65
2023/10/17 22:15:42;;;;;;;30.20;18.03;;;;;;;;;;5135298;27;20537;-66
2023/10/17 22:18:09;;;;;;;30.80;17.50;;;;;;;;;;5133818;27;20445;-66
2023/10/17 22:20:39;;;;;;;29.17;17.57;;;;;;;;;;5138694;27;20548;-65
2023/10/17 22:23:05;;;;;;;28.53;15.77;;;;;;;;;;5137764;27;20445;-66
2023/10/17 22:25:32;;;;;;;28.77;17.20;;;;;;;;;;5133143;27;20433;-67
2023/10/17 22:27:58;;;;;;;27.83;16.27;;;;;;;;;;5134428;27;20487;-65
2023/10/17 22:30:25;;;;;;;32.07;17.10;;;;;;;;;;5139783;27;20456;-66
2023/10/17 22:32:51;;;;;;;30.00;16.83;;;;;;;;;;5147346;27;20444;-66
2023/10/17 22:35:18;;;;;;;34.00;16.93;;;;;;;;;;5135218;27;20526;-66
2023/10/17 22:37:46;;;;;;;32.17;17.40;;;;;;;;;;5127153;27;20448;-66
2023/10/17 22:40:12;;;;;;;26.33;15.47;;;;;;;;;;5139640;27;20513;-66
2023/10/17 22:42:39;;;;;;;29.77;18.73;;;;;;;;;;5119202;27;20533;-66
2023/10/17 22:45:06;;;;;;;29.37;15.73;;;;;;;;;;5114256;28;21011;-67
2023/10/17 22:47:32;;;;;;;28.63;16.57;;;;;;;;;;5113658;28;20449;-67
2023/10/17 22:49:59;;;;;;;29.90;16.20;;;;;;;;;;5108327;28;20459;-66
2023/10/17 22:52:25;;;;;;;32.70;16.60;;;;;;;;;;5117031;28;20460;-67
2023/10/17 22:54:53;;;;;;;31.70;16.40;;;;;;;;;;5118418;28;20482;-66
2023/10/17 22:57:20;;;;;;;23.03;15.30;;;;;;;;;;5102933;28;20457;-64
2023/10/17 22:59:47;;;;;;;29.83;17.37;;;;;;;;;;5103251;28;20451;-64
2023/10/17 23:02:14;;;;;;;30.00;16.60;;;;;;;;;;5102410;28;20487;-65
2023/10/17 23:04:41;;;;;;;28.70;15.90;;;;;;;;;;5098205;28;20459;-65
2023/10/17 23:07:08;;;;;;;26.30;15.37;;;;;;;;;;5101439;28;20775;-65
2023/10/17 23:09:34;;;;;;;26.63;16.30;;;;;;;;;;5102268;28;20451;-65
2023/10/17 23:12:03;;;;;;;30.10;17.70;;;;;;;;;;5096211;28;20505;-64
2023/10/17 23:14:29;;;;;;;38.97;16.70;;;;;;;;;;5103733;28;20482;-66
2023/10/17 23:16:55;;;;;;;41.80;17.80;;;;;;;;;;5102177;28;20452;-66
2023/10/17 23:19:22;;;;;;;35.53;17.43;;;;;;;;;;5106151;28;20490;-65
2023/10/17 23:21:49;;;;;;;32.03;17.83;;;;;;;;;;5101586;28;20483;-65
2023/10/17 23:24:15;;;;;;;30.20;18.10;;;;;;;;;;5110426;28;20458;-66
2023/10/17 23:26:42;;;;;;;27.10;17.90;;;;;;;;;;5101493;28;20607;-66
2023/10/17 23:29:11;;;;;;;31.27;18.47;;;;;;;;;;5105472;28;20450;-65
2023/10/17 23:31:38;;;;;;;26.30;16.40;;;;;;;;;;5108108;28;20461;-66
2023/10/17 23:34:05;;;;;;;32.07;17.70;;;;;;;;;;5104817;28;20507;-66
2023/10/17 23:36:31;;;;;;;29.20;16.90;;;;;;;;;;5101097;28;20458;-64
2023/10/17 23:38:57;;;;;;;28.10;15.83;;;;;;;;;;5098090;28;20451;-64
2023/10/17 23:41:24;;;;;;;29.27;17.07;;;;;;;;;;5105312;28;20869;-65
2023/10/17 23:43:51;;;;;;;25.90;15.67;;;;;;;;;;5098727;28;20590;-64
2023/10/17 23:46:18;;;;;;;24.50;15.70;;;;;;;;;;5094720;28;20846;-65
2023/10/17 23:48:45;;;;;;;24.40;16.13;;;;;;;;;;5095976;28;20462;-65
2023/10/17 23:54:45;;;;;;;35.63;18.00;;;;;;;;;;5114800;27;20665;-66
2023/10/17 23:57:13;;;;;;;31.97;18.10;;;;;;;;;;5094851;28;20462;-65
